createdAt,value
2023-01-24T05:30:45.512Z,38.47
2023-01-24T05:35:47.234Z,43.33
2023-01-24T05:40:48.844Z,41.87
2023-01-24T05:45:50.490Z,43.17
2023-01-24T05:50:58.213Z,44.23
2023-01-24T05:56:02.988Z,41.80
2023-01-24T06:01:31.527Z,42.40
2023-01-24T06:06:33.613Z,48.23
2023-01-24T06:11:35.294Z,44.23
2023-01-24T06:16:36.958Z,43.07
2023-01-24T06:21:45.235Z,41.30
2023-01-24T06:26:48.080Z,42.63
2023-01-24T06:32:11.592Z,41.30
2023-01-24T06:37:41.475Z,42.87
2023-01-24T06:42:43.577Z,41.97
2023-01-24T06:47:45.495Z,41.17
2023-01-24T06:52:48.715Z,42.80
2023-01-24T06:58:01.182Z,43.30
2023-01-24T07:03:08.011Z,40.60
2023-01-24T07:08:09.713Z,41.33
2023-01-24T07:13:13.485Z,42.60
2023-01-24T07:18:17.263Z,43.27
2023-01-24T07:23:29.236Z,45.33
2023-01-24T07:28:31.069Z,43.97
2023-01-24T07:33:33.035Z,42.97
2023-01-24T07:38:34.610Z,47.33
2023-01-24T07:43:36.333Z,43.23
2023-01-24T07:48:38.113Z,41.87
2023-01-24T07:53:39.898Z,47.90
2023-01-24T07:58:41.713Z,44.60
2023-01-24T08:03:43.298Z,45.87
2023-01-24T08:08:45.173Z,44.80
2023-01-24T08:13:47.592Z,43.67
2023-01-24T08:18:49.567Z,43.87
2023-01-24T08:23:51.310Z,49.37
2023-01-24T08:28:53.202Z,46.43
2023-01-24T08:33:55.057Z,47.30
2023-01-24T08:39:05.862Z,47.93
2023-01-24T08:44:09.527Z,44.53
2023-01-24T08:49:12.275Z,46.97
2023-01-24T08:54:16.201Z,46.47
2023-01-24T08:59:18.202Z,48.63
2023-01-24T09:04:21.509Z,51.20
2023-01-24T09:09:25.619Z,52.50
2023-01-24T09:14:27.357Z,53.83
2023-01-24T09:19:29.163Z,49.97
2023-01-24T09:24:30.799Z,52.67
2023-01-24T09:29:32.547Z,53.23
2023-01-24T09:34:34.323Z,48.40
2023-01-24T09:39:37.836Z,52.17
2023-01-24T09:45:05.281Z,55.97
2023-01-24T09:50:14.558Z,50.43
2023-01-24T09:55:25.128Z,51.77
2023-01-24T10:00:33.170Z,55.70
2023-01-24T10:05:44.266Z,54.23
2023-01-24T10:10:52.714Z,50.20
2023-01-24T10:16:15.001Z,52.03
2023-01-24T10:21:42.172Z,53.10
2023-01-24T10:26:49.586Z,53.87
2023-01-24T10:32:17.177Z,50.97
2023-01-24T10:37:36.941Z,57.10
2023-01-24T10:42:39.239Z,52.30
2023-01-24T10:47:48.239Z,54.87
2023-01-24T10:52:50.854Z,54.50
2023-01-24T10:57:56.188Z,55.47
2023-01-24T11:03:00.803Z,52.30
2023-01-24T11:08:05.336Z,53.17
2023-01-24T11:13:25.040Z,54.23
2023-01-24T11:18:28.733Z,55.03
2023-01-24T11:23:30.364Z,53.53
2023-01-24T11:28:37.130Z,56.37
2023-01-24T11:34:08.135Z,56.07
2023-01-24T11:39:35.394Z,53.57
2023-01-24T11:44:56.180Z,56.30
2023-01-24T11:50:09.398Z,54.53
2023-01-24T11:55:31.726Z,55.70
2023-01-24T12:01:06.770Z,55.63
2023-01-24T12:06:21.765Z,56.33
2023-01-24T12:11:36.932Z,61.07
2023-01-24T12:16:51.684Z,58.83
2023-01-24T12:22:01.144Z,56.33
2023-01-24T12:27:08.094Z,76.50
2023-01-24T12:32:22.213Z,90.27
2023-01-24T12:37:36.578Z,98.37
2023-01-24T12:42:59.884Z,103.27
2023-01-24T12:48:15.761Z,75.97
2023-01-24T12:53:40.655Z,87.43
2023-01-24T12:58:48.872Z,62.47
2023-01-24T13:04:13.771Z,63.73
2023-01-24T13:09:28.575Z,61.93
2023-01-24T13:14:56.591Z,54.07
2023-01-24T13:20:02.533Z,57.93
2023-01-24T13:25:35.448Z,57.00
2023-01-24T13:30:55.673Z,67.17
2023-01-24T13:35:57.701Z,60.37
2023-01-24T13:41:06.773Z,57.13
2023-01-24T13:46:10.480Z,51.70
2023-01-24T13:51:18.378Z,55.03
2023-01-24T13:56:20.049Z,49.57
2023-01-24T14:01:23.725Z,54.50
2023-01-24T14:06:26.998Z,50.80
2023-01-24T14:11:36.204Z,60.97
2023-01-24T14:16:38.128Z,54.50
2023-01-24T14:21:59.891Z,49.27
2023-01-24T14:27:21.361Z,53.13
2023-01-24T14:32:29.510Z,48.90
2023-01-24T14:37:32.885Z,52.10
2023-01-24T14:42:36.187Z,50.87
2023-01-24T14:47:37.929Z,53.80
2023-01-24T14:52:39.970Z,53.17
2023-01-24T14:57:42.731Z,53.83
2023-01-24T15:02:59.612Z,56.90
2023-01-24T15:08:03.690Z,55.97
2023-01-24T15:13:10.451Z,59.20
2023-01-24T15:18:37.723Z,51.57
2023-01-24T15:23:39.806Z,56.10
2023-01-24T15:28:44.601Z,55.63
2023-01-24T15:33:47.249Z,60.43
2023-01-24T15:38:54.385Z,52.47
2023-01-24T15:44:08.176Z,58.70
2023-01-24T15:49:36.346Z,57.53
2023-01-24T15:54:40.012Z,52.20
2023-01-24T15:59:45.148Z,55.03
2023-01-24T16:04:48.963Z,56.13
2023-01-24T16:09:54.307Z,51.40
2023-01-24T16:15:08.697Z,53.47
2023-01-24T16:20:32.794Z,54.90
2023-01-24T16:25:36.676Z,54.43
2023-01-24T16:30:39.600Z,50.97
2023-01-24T16:35:41.335Z,53.53
2023-01-24T16:40:43.741Z,57.10
2023-01-24T16:45:47.840Z,51.93
2023-01-24T16:50:49.644Z,53.73
2023-01-24T16:55:58.070Z,52.83
2023-01-24T17:01:00.050Z,58.73
2023-01-24T17:06:01.763Z,61.53
2023-01-24T17:11:05.369Z,54.83
2023-01-24T17:16:10.369Z,56.73
2023-01-24T17:21:15.662Z,59.83
2023-01-24T17:26:18.123Z,57.83
2023-01-24T17:31:21.687Z,60.53
2023-01-24T17:36:23.434Z,69.43
2023-01-24T17:41:25.306Z,57.20
2023-01-24T17:46:27.031Z,57.80
2023-01-24T17:51:28.668Z,60.97
2023-01-24T17:56:30.487Z,59.77
2023-01-24T18:01:32.429Z,55.13
2023-01-24T18:06:34.143Z,60.13
2023-01-24T18:11:37.344Z,63.67
2023-01-24T18:16:39.110Z,54.67
2023-01-24T18:21:42.367Z,55.50
2023-01-24T18:26:44.118Z,54.37
2023-01-24T18:31:47.562Z,55.17
2023-01-24T18:36:49.572Z,58.97
2023-01-24T18:41:51.204Z,57.43
2023-01-24T18:46:52.939Z,53.17
2023-01-24T18:51:54.538Z,55.50
2023-01-24T18:56:56.211Z,54.67
2023-01-24T19:01:59.052Z,47.33
2023-01-24T19:07:03.030Z,54.73
2023-01-24T19:12:04.906Z,52.10
2023-01-24T19:17:08.949Z,54.40
2023-01-24T19:22:12.420Z,55.90
2023-01-24T19:27:15.806Z,55.80
2023-01-24T19:32:17.525Z,49.20
2023-01-24T19:37:19.250Z,55.50
2023-01-24T19:42:26.162Z,52.17
2023-01-24T19:47:27.802Z,53.87
2023-01-24T19:52:31.092Z,55.23
2023-01-24T19:57:32.781Z,49.73
2023-01-24T20:02:35.540Z,50.87
2023-01-24T20:07:37.225Z,49.23
2023-01-24T20:12:41.633Z,52.43
2023-01-24T20:17:44.057Z,46.33
2023-01-24T20:22:45.793Z,47.73
2023-01-24T20:27:47.429Z,50.27
2023-01-24T20:32:49.173Z,53.50
2023-01-24T20:37:50.854Z,51.43
2023-01-24T20:42:52.531Z,53.60
2023-01-24T20:47:54.515Z,51.17
2023-01-24T20:52:56.762Z,51.77
2023-01-24T20:57:58.509Z,45.47
2023-01-24T21:03:00.397Z,52.60
2023-01-24T21:08:02.167Z,44.83
2023-01-24T21:13:03.979Z,46.53
2023-01-24T21:18:14.962Z,45.97
2023-01-24T21:23:16.670Z,45.47
2023-01-24T21:28:18.443Z,44.30
2023-01-24T21:33:20.093Z,45.17
2023-01-24T21:38:21.672Z,44.87
